Almonesson, New Jersey
Current Conditions -  °F | °C
As of 6:54 PM on Wednesday 28 Jan 2015 (Local Time) from KPHL Reporting Station
Clear Clear  
Wind Chill: -4°   Ceiling: Unl
Heat Index:   Visibility: 10mi
Dew Point: -16°   Wind: 8mph
Humidity: 29%   Direction: 310°NW
Pressure: 30.25"   Gusts: NA
Location:  39.8266°N, 75.1276°W
Report Text: KPHL 282354Z 31007KT 10SM CLR 00/M16 A3025 RMK AO2 SLP242 T00001161 10017 21006 53026 $
Loading
Personal Weather Stations






























Interactive Weather Map New forecast layout! Learn more

10-Day Weather Forecast

Advertisements
Track Severe Weather on mobile